sensor_id;sensor_type;location;lat;lon;timestamp;P1;durP1;ratioP1;P2;durP2;ratioP2
572;SDS011;271;51.114;13.780;2023-04-24T00:01:29;17.63;;;4.33;;
572;SDS011;271;51.114;13.780;2023-04-24T00:04:17;17.50;;;3.87;;
572;SDS011;271;51.114;13.780;2023-04-24T00:07:05;17.77;;;4.10;;
572;SDS011;271;51.114;13.780;2023-04-24T00:09:54;17.30;;;3.90;;
572;SDS011;271;51.114;13.780;2023-04-24T00:12:42;17.80;;;3.93;;
572;SDS011;271;51.114;13.780;2023-04-24T00:15:30;16.33;;;3.23;;
572;SDS011;271;51.114;13.780;2023-04-24T00:18:17;18.33;;;4.60;;
572;SDS011;271;51.114;13.780;2023-04-24T00:21:05;17.30;;;4.17;;
572;SDS011;271;51.114;13.780;2023-04-24T00:23:53;17.77;;;4.27;;
572;SDS011;271;51.114;13.780;2023-04-24T00:26:42;17.40;;;4.10;;
572;SDS011;271;51.114;13.780;2023-04-24T00:29:29;16.87;;;4.20;;
572;SDS011;271;51.114;13.780;2023-04-24T00:32:17;17.10;;;3.90;;
572;SDS011;271;51.114;13.780;2023-04-24T00:35:05;17.80;;;4.40;;
572;SDS011;271;51.114;13.780;2023-04-24T00:37:53;17.90;;;4.20;;
572;SDS011;271;51.114;13.780;2023-04-24T00:40:41;17.87;;;3.60;;
572;SDS011;271;51.114;13.780;2023-04-24T00:46:19;18.40;;;4.10;;
572;SDS011;271;51.114;13.780;2023-04-24T00:49:08;18.47;;;4.00;;
572;SDS011;271;51.114;13.780;2023-04-24T00:51:55;17.50;;;3.73;;
572;SDS011;271;51.114;13.780;2023-04-24T00:54:45;18.67;;;4.60;;
572;SDS011;271;51.114;13.780;2023-04-24T00:57:32;18.30;;;4.53;;
572;SDS011;271;51.114;13.780;2023-04-24T01:00:22;18.73;;;3.97;;
572;SDS011;271;51.114;13.780;2023-04-24T01:03:11;17.87;;;3.70;;
572;SDS011;271;51.114;13.780;2023-04-24T01:05:59;20.27;;;4.63;;
572;SDS011;271;51.114;13.780;2023-04-24T01:08:47;17.50;;;4.33;;
572;SDS011;271;51.114;13.780;2023-04-24T01:11:36;17.87;;;4.57;;
572;SDS011;271;51.114;13.780;2023-04-24T01:14:24;17.30;;;4.23;;
572;SDS011;271;51.114;13.780;2023-04-24T01:17:13;17.93;;;4.10;;
572;SDS011;271;51.114;13.780;2023-04-24T01:20:01;19.00;;;5.67;;
572;SDS011;271;51.114;13.780;2023-04-24T01:22:53;20.63;;;4.60;;
572;SDS011;271;51.114;13.780;2023-04-24T01:25:42;17.93;;;4.30;;
572;SDS011;271;51.114;13.780;2023-04-24T01:28:30;19.90;;;5.27;;
572;SDS011;271;51.114;13.780;2023-04-24T01:31:18;17.50;;;4.50;;
572;SDS011;271;51.114;13.780;2023-04-24T01:34:06;17.90;;;4.50;;
572;SDS011;271;51.114;13.780;2023-04-24T01:36:54;17.67;;;4.47;;
572;SDS011;271;51.114;13.780;2023-04-24T01:39:44;18.80;;;4.20;;
572;SDS011;271;51.114;13.780;2023-04-24T01:42:31;16.67;;;3.70;;
572;SDS011;271;51.114;13.780;2023-04-24T01:45:19;17.60;;;4.27;;
572;SDS011;271;51.114;13.780;2023-04-24T01:48:07;20.20;;;5.87;;
572;SDS011;271;51.114;13.780;2023-04-24T01:50:55;19.20;;;5.47;;
572;SDS011;271;51.114;13.780;2023-04-24T01:53:43;20.93;;;5.70;;
572;SDS011;271;51.114;13.780;2023-04-24T01:56:33;18.50;;;4.63;;
572;SDS011;271;51.114;13.780;2023-04-24T01:59:22;17.80;;;4.53;;
572;SDS011;271;51.114;13.780;2023-04-24T02:02:12;17.13;;;4.10;;
572;SDS011;271;51.114;13.780;2023-04-24T02:04:59;16.90;;;3.80;;
572;SDS011;271;51.114;13.780;2023-04-24T02:07:47;16.63;;;4.10;;
572;SDS011;271;51.114;13.780;2023-04-24T02:10:35;17.20;;;3.50;;
572;SDS011;271;51.114;13.780;2023-04-24T02:13:24;17.33;;;4.30;;
572;SDS011;271;51.114;13.780;2023-04-24T02:16:11;17.30;;;3.87;;
572;SDS011;271;51.114;13.780;2023-04-24T02:18:59;17.33;;;3.87;;
572;SDS011;271;51.114;13.780;2023-04-24T02:21:47;17.13;;;4.10;;
572;SDS011;271;51.114;13.780;2023-04-24T02:24:34;16.87;;;3.63;;
572;SDS011;271;51.114;13.780;2023-04-24T02:27:22;17.93;;;3.67;;
572;SDS011;271;51.114;13.780;2023-04-24T02:30:12;16.33;;;3.30;;
572;SDS011;271;51.114;13.780;2023-04-24T02:33:00;18.30;;;3.97;;
572;SDS011;271;51.114;13.780;2023-04-24T02:35:48;17.30;;;3.77;;
572;SDS011;271;51.114;13.780;2023-04-24T02:38:35;16.60;;;3.73;;
572;SDS011;271;51.114;13.780;2023-04-24T02:41:23;19.60;;;3.90;;
572;SDS011;271;51.114;13.780;2023-04-24T02:44:17;16.70;;;3.30;;
572;SDS011;271;51.114;13.780;2023-04-24T02:47:06;16.80;;;3.37;;
572;SDS011;271;51.114;13.780;2023-04-24T02:49:54;16.80;;;3.50;;
572;SDS011;271;51.114;13.780;2023-04-24T02:52:42;17.10;;;3.43;;
572;SDS011;271;51.114;13.780;2023-04-24T02:55:29;18.07;;;3.80;;
572;SDS011;271;51.114;13.780;2023-04-24T02:58:17;20.03;;;4.73;;
572;SDS011;271;51.114;13.780;2023-04-24T03:01:05;17.97;;;4.40;;
572;SDS011;271;51.114;13.780;2023-04-24T03:03:54;17.70;;;3.97;;
572;SDS011;271;51.114;13.780;2023-04-24T03:06:42;18.20;;;4.50;;
572;SDS011;271;51.114;13.780;2023-04-24T03:09:30;17.33;;;4.00;;
572;SDS011;271;51.114;13.780;2023-04-24T03:12:18;17.70;;;4.33;;
572;SDS011;271;51.114;13.780;2023-04-24T03:15:06;16.80;;;3.97;;
572;SDS011;271;51.114;13.780;2023-04-24T03:17:55;17.20;;;3.30;;
572;SDS011;271;51.114;13.780;2023-04-24T03:20:44;17.60;;;4.00;;
572;SDS011;271;51.114;13.780;2023-04-24T03:23:32;18.40;;;3.67;;
572;SDS011;271;51.114;13.780;2023-04-24T03:26:20;17.00;;;4.13;;
572;SDS011;271;51.114;13.780;2023-04-24T03:29:08;16.00;;;3.33;;
572;SDS011;271;51.114;13.780;2023-04-24T03:31:55;18.43;;;4.10;;
572;SDS011;271;51.114;13.780;2023-04-24T03:34:43;15.90;;;2.73;;
572;SDS011;271;51.114;13.780;2023-04-24T03:37:32;18.63;;;3.63;;
572;SDS011;271;51.114;13.780;2023-04-24T03:40:19;17.03;;;3.00;;
572;SDS011;271;51.114;13.780;2023-04-24T03:43:07;17.97;;;3.13;;
572;SDS011;271;51.114;13.780;2023-04-24T03:45:55;18.43;;;4.00;;
572;SDS011;271;51.114;13.780;2023-04-24T03:48:42;17.13;;;3.43;;
572;SDS011;271;51.114;13.780;2023-04-24T03:51:30;16.77;;;3.10;;
572;SDS011;271;51.114;13.780;2023-04-24T03:54:19;17.53;;;3.50;;
572;SDS011;271;51.114;13.780;2023-04-24T03:57:07;16.13;;;2.90;;
572;SDS011;271;51.114;13.780;2023-04-24T03:59:55;16.80;;;3.20;;
572;SDS011;271;51.114;13.780;2023-04-24T04:02:43;16.10;;;2.60;;
572;SDS011;271;51.114;13.780;2023-04-24T04:05:32;15.80;;;2.50;;
572;SDS011;271;51.114;13.780;2023-04-24T04:08:20;21.53;;;2.73;;
572;SDS011;271;51.114;13.780;2023-04-24T04:11:09;15.73;;;2.23;;
572;SDS011;271;51.114;13.780;2023-04-24T04:14:00;18.57;;;2.50;;
572;SDS011;271;51.114;13.780;2023-04-24T04:16:48;15.80;;;2.40;;
572;SDS011;271;51.114;13.780;2023-04-24T04:19:38;16.07;;;3.10;;
572;SDS011;271;51.114;13.780;2023-04-24T04:22:26;15.60;;;2.30;;
572;SDS011;271;51.114;13.780;2023-04-24T04:25:14;16.83;;;2.23;;
572;SDS011;271;51.114;13.780;2023-04-24T04:28:06;15.27;;;2.03;;
572;SDS011;271;51.114;13.780;2023-04-24T04:30:54;16.00;;;2.20;;
572;SDS011;271;51.114;13.780;2023-04-24T04:33:43;15.90;;;1.73;;
572;SDS011;271;51.114;13.780;2023-04-24T04:36:31;17.10;;;1.90;;
572;SDS011;271;51.114;13.780;2023-04-24T04:39:18;16.10;;;1.50;;
572;SDS011;271;51.114;13.780;2023-04-24T04:42:06;15.63;;;1.67;;
572;SDS011;271;51.114;13.780;2023-04-24T04:44:55;15.87;;;1.80;;
572;SDS011;271;51.114;13.780;2023-04-24T04:47:43;16.00;;;1.50;;
572;SDS011;271;51.114;13.780;2023-04-24T04:50:31;15.17;;;1.20;;
572;SDS011;271;51.114;13.780;2023-04-24T04:53:18;15.97;;;1.47;;
572;SDS011;271;51.114;13.780;2023-04-24T04:56:06;15.40;;;1.30;;
572;SDS011;271;51.114;13.780;2023-04-24T04:58:54;17.03;;;1.53;;
572;SDS011;271;51.114;13.780;2023-04-24T05:01:43;15.37;;;1.23;;
572;SDS011;271;51.114;13.780;2023-04-24T05:04:31;15.87;;;1.50;;
572;SDS011;271;51.114;13.780;2023-04-24T05:07:18;15.23;;;1.20;;
572;SDS011;271;51.114;13.780;2023-04-24T05:10:06;15.70;;;1.30;;
572;SDS011;271;51.114;13.780;2023-04-24T05:12:55;15.60;;;1.33;;
572;SDS011;271;51.114;13.780;2023-04-24T05:15:42;16.40;;;1.40;;
572;SDS011;271;51.114;13.780;2023-04-24T05:18:31;15.80;;;1.20;;
572;SDS011;271;51.114;13.780;2023-04-24T05:21:19;15.43;;;1.30;;
572;SDS011;271;51.114;13.780;2023-04-24T05:24:07;15.33;;;1.30;;
572;SDS011;271;51.114;13.780;2023-04-24T05:26:55;16.40;;;1.57;;
572;SDS011;271;51.114;13.780;2023-04-24T05:29:44;16.13;;;1.43;;
572;SDS011;271;51.114;13.780;2023-04-24T05:32:32;15.27;;;1.30;;
572;SDS011;271;51.114;13.780;2023-04-24T05:35:21;15.50;;;1.33;;
572;SDS011;271;51.114;13.780;2023-04-24T05:38:08;18.57;;;1.70;;
572;SDS011;271;51.114;13.780;2023-04-24T05:40:56;15.13;;;1.10;;
572;SDS011;271;51.114;13.780;2023-04-24T05:43:44;15.53;;;1.33;;
572;SDS011;271;51.114;13.780;2023-04-24T05:46:31;16.17;;;1.47;;
572;SDS011;271;51.114;13.780;2023-04-24T05:49:19;15.13;;;1.07;;
572;SDS011;271;51.114;13.780;2023-04-24T05:52:08;17.20;;;1.30;;
572;SDS011;271;51.114;13.780;2023-04-24T05:54:56;15.13;;;1.20;;
572;SDS011;271;51.114;13.780;2023-04-24T05:57:43;15.93;;;1.10;;
572;SDS011;271;51.114;13.780;2023-04-24T06:00:31;15.20;;;1.30;;
572;SDS011;271;51.114;13.780;2023-04-24T06:03:20;14.80;;;1.00;;
572;SDS011;271;51.114;13.780;2023-04-24T06:06:07;15.10;;;1.20;;
572;SDS011;271;51.114;13.780;2023-04-24T06:08:57;16.07;;;1.47;;
572;SDS011;271;51.114;13.780;2023-04-24T06:11:44;15.20;;;1.30;;
572;SDS011;271;51.114;13.780;2023-04-24T06:14:32;16.97;;;1.80;;
572;SDS011;271;51.114;13.780;2023-04-24T06:17:20;15.97;;;1.50;;
572;SDS011;271;51.114;13.780;2023-04-24T06:20:08;15.00;;;1.20;;
572;SDS011;271;51.114;13.780;2023-04-24T06:22:57;15.53;;;1.47;;
572;SDS011;271;51.114;13.780;2023-04-24T06:25:46;15.73;;;1.17;;
572;SDS011;271;51.114;13.780;2023-04-24T06:28:34;17.77;;;2.30;;
572;SDS011;271;51.114;13.780;2023-04-24T06:31:22;15.63;;;1.17;;
572;SDS011;271;51.114;13.780;2023-04-24T06:34:09;15.40;;;1.20;;
572;SDS011;271;51.114;13.780;2023-04-24T06:36:57;15.50;;;1.03;;
572;SDS011;271;51.114;13.780;2023-04-24T06:39:45;15.70;;;1.23;;
572;SDS011;271;51.114;13.780;2023-04-24T06:42:35;14.87;;;1.23;;
572;SDS011;271;51.114;13.780;2023-04-24T06:45:22;16.60;;;1.87;;
572;SDS011;271;51.114;13.780;2023-04-24T06:48:10;15.40;;;1.30;;
572;SDS011;271;51.114;13.780;2023-04-24T06:50:58;14.90;;;1.13;;
572;SDS011;271;51.114;13.780;2023-04-24T06:53:45;15.10;;;1.40;;
572;SDS011;271;51.114;13.780;2023-04-24T06:56:33;15.57;;;1.57;;
572;SDS011;271;51.114;13.780;2023-04-24T06:59:22;14.27;;;0.97;;
572;SDS011;271;51.114;13.780;2023-04-24T07:02:10;14.30;;;1.20;;
572;SDS011;271;51.114;13.780;2023-04-24T07:04:58;13.87;;;1.10;;
572;SDS011;271;51.114;13.780;2023-04-24T07:07:45;14.70;;;1.30;;
572;SDS011;271;51.114;13.780;2023-04-24T07:10:34;15.53;;;0.90;;
572;SDS011;271;51.114;13.780;2023-04-24T07:13:22;14.50;;;1.30;;
572;SDS011;271;51.114;13.780;2023-04-24T07:16:11;15.33;;;1.10;;
572;SDS011;271;51.114;13.780;2023-04-24T07:18:59;14.40;;;1.00;;
572;SDS011;271;51.114;13.780;2023-04-24T07:21:47;13.73;;;1.17;;
572;SDS011;271;51.114;13.780;2023-04-24T07:24:34;14.67;;;1.00;;
572;SDS011;271;51.114;13.780;2023-04-24T07:27:22;14.30;;;1.00;;
572;SDS011;271;51.114;13.780;2023-04-24T07:30:10;14.10;;;1.00;;
572;SDS011;271;51.114;13.780;2023-04-24T07:32:59;13.97;;;1.00;;
572;SDS011;271;51.114;13.780;2023-04-24T07:35:47;14.00;;;0.97;;
572;SDS011;271;51.114;13.780;2023-04-24T07:38:35;13.63;;;0.90;;
572;SDS011;271;51.114;13.780;2023-04-24T07:41:23;14.67;;;0.90;;
572;SDS011;271;51.114;13.780;2023-04-24T07:44:11;13.93;;;1.10;;
572;SDS011;271;51.114;13.780;2023-04-24T07:46:58;14.17;;;1.00;;
572;SDS011;271;51.114;13.780;2023-04-24T07:49:47;14.13;;;0.90;;
572;SDS011;271;51.114;13.780;2023-04-24T07:52:35;14.50;;;1.40;;
572;SDS011;271;51.114;13.780;2023-04-24T07:55:23;13.70;;;0.97;;
572;SDS011;271;51.114;13.780;2023-04-24T07:58:11;13.97;;;1.00;;
572;SDS011;271;51.114;13.780;2023-04-24T08:00:58;14.67;;;1.10;;
572;SDS011;271;51.114;13.780;2023-04-24T08:03:46;14.40;;;1.37;;
572;SDS011;271;51.114;13.780;2023-04-24T08:06:35;13.83;;;0.80;;
572;SDS011;271;51.114;13.780;2023-04-24T08:09:23;15.87;;;1.10;;
572;SDS011;271;51.114;13.780;2023-04-24T08:12:10;14.60;;;1.20;;
572;SDS011;271;51.114;13.780;2023-04-24T08:14:58;14.50;;;1.10;;
572;SDS011;271;51.114;13.780;2023-04-24T08:17:46;13.73;;;1.00;;
572;SDS011;271;51.114;13.780;2023-04-24T08:20:33;14.40;;;1.10;;
572;SDS011;271;51.114;13.780;2023-04-24T08:23:23;14.40;;;0.90;;
572;SDS011;271;51.114;13.780;2023-04-24T08:26:11;14.17;;;1.10;;
572;SDS011;271;51.114;13.780;2023-04-24T08:28:59;13.83;;;1.10;;
572;SDS011;271;51.114;13.780;2023-04-24T08:31:47;14.40;;;1.10;;
572;SDS011;271;51.114;13.780;2023-04-24T08:34:34;14.30;;;1.00;;
572;SDS011;271;51.114;13.780;2023-04-24T08:37:22;14.00;;;0.97;;
572;SDS011;271;51.114;13.780;2023-04-24T08:40:12;14.77;;;1.50;;
572;SDS011;271;51.114;13.780;2023-04-24T08:43:01;15.20;;;1.00;;
572;SDS011;271;51.114;13.780;2023-04-24T08:45:50;14.03;;;0.90;;
572;SDS011;271;51.114;13.780;2023-04-24T08:48:38;15.70;;;1.20;;
572;SDS011;271;51.114;13.780;2023-04-24T08:51:27;15.00;;;1.00;;
572;SDS011;271;51.114;13.780;2023-04-24T08:54:16;14.57;;;1.00;;
572;SDS011;271;51.114;13.780;2023-04-24T08:57:06;16.20;;;0.90;;
572;SDS011;271;51.114;13.780;2023-04-24T08:59:57;14.33;;;0.90;;
572;SDS011;271;51.114;13.780;2023-04-24T09:02:47;13.97;;;1.00;;
572;SDS011;271;51.114;13.780;2023-04-24T09:05:36;14.77;;;0.97;;
572;SDS011;271;51.114;13.780;2023-04-24T09:08:26;13.93;;;0.90;;
572;SDS011;271;51.114;13.780;2023-04-24T09:11:16;14.23;;;1.20;;
572;SDS011;271;51.114;13.780;2023-04-24T09:14:05;14.63;;;0.93;;
572;SDS011;271;51.114;13.780;2023-04-24T09:16:55;14.20;;;0.90;;
572;SDS011;271;51.114;13.780;2023-04-24T09:19:42;16.10;;;1.00;;
572;SDS011;271;51.114;13.780;2023-04-24T09:22:30;13.97;;;0.90;;
572;SDS011;271;51.114;13.780;2023-04-24T09:25:18;13.87;;;1.10;;
572;SDS011;271;51.114;13.780;2023-04-24T09:28:06;14.17;;;0.90;;
572;SDS011;271;51.114;13.780;2023-04-24T09:31:05;14.30;;;1.00;;
572;SDS011;271;51.114;13.780;2023-04-24T09:33:54;13.97;;;1.00;;
572;SDS011;271;51.114;13.780;2023-04-24T09:36:43;14.27;;;1.10;;
572;SDS011;271;51.114;13.780;2023-04-24T09:39:31;15.00;;;1.50;;
572;SDS011;271;51.114;13.780;2023-04-24T09:42:18;13.77;;;1.00;;
572;SDS011;271;51.114;13.780;2023-04-24T09:45:09;14.23;;;1.03;;
572;SDS011;271;51.114;13.780;2023-04-24T09:47:59;15.43;;;1.27;;
572;SDS011;271;51.114;13.780;2023-04-24T09:50:47;13.90;;;0.93;;
572;SDS011;271;51.114;13.780;2023-04-24T09:53:38;14.00;;;1.00;;
572;SDS011;271;51.114;13.780;2023-04-24T09:56:26;14.23;;;1.23;;
572;SDS011;271;51.114;13.780;2023-04-24T09:59:15;14.87;;;1.00;;
572;SDS011;271;51.114;13.780;2023-04-24T10:02:04;14.40;;;1.30;;
572;SDS011;271;51.114;13.780;2023-04-24T10:05:05;14.17;;;1.10;;
572;SDS011;271;51.114;13.780;2023-04-24T10:07:59;14.50;;;1.13;;
572;SDS011;271;51.114;13.780;2023-04-24T10:10:48;14.07;;;1.03;;
572;SDS011;271;51.114;13.780;2023-04-24T10:13:36;13.67;;;0.87;;
572;SDS011;271;51.114;13.780;2023-04-24T10:16:26;14.40;;;1.00;;
572;SDS011;271;51.114;13.780;2023-04-24T10:19:14;13.90;;;0.90;;
572;SDS011;271;51.114;13.780;2023-04-24T10:22:05;14.70;;;1.00;;
572;SDS011;271;51.114;13.780;2023-04-24T10:24:53;14.03;;;0.87;;
572;SDS011;271;51.114;13.780;2023-04-24T10:27:41;13.97;;;0.90;;
572;SDS011;271;51.114;13.780;2023-04-24T10:30:30;14.40;;;1.00;;
572;SDS011;271;51.114;13.780;2023-04-24T10:33:21;14.10;;;1.03;;
572;SDS011;271;51.114;13.780;2023-04-24T10:36:10;14.53;;;1.10;;
572;SDS011;271;51.114;13.780;2023-04-24T10:39:02;14.47;;;1.00;;
572;SDS011;271;51.114;13.780;2023-04-24T10:41:54;13.77;;;0.80;;
572;SDS011;271;51.114;13.780;2023-04-24T10:44:43;14.67;;;1.10;;
572;SDS011;271;51.114;13.780;2023-04-24T10:47:38;14.37;;;0.90;;
572;SDS011;271;51.114;13.780;2023-04-24T10:50:27;13.93;;;1.07;;
572;SDS011;271;51.114;13.780;2023-04-24T10:53:16;13.70;;;0.80;;
572;SDS011;271;51.114;13.780;2023-04-24T10:56:07;14.00;;;1.10;;
572;SDS011;271;51.114;13.780;2023-04-24T10:58:56;13.70;;;0.80;;
572;SDS011;271;51.114;13.780;2023-04-24T11:01:44;13.67;;;0.80;;
572;SDS011;271;51.114;13.780;2023-04-24T11:04:40;14.20;;;1.00;;
572;SDS011;271;51.114;13.780;2023-04-24T11:07:29;13.63;;;0.80;;
572;SDS011;271;51.114;13.780;2023-04-24T11:10:24;13.97;;;0.90;;
572;SDS011;271;51.114;13.780;2023-04-24T11:13:15;15.50;;;1.17;;
572;SDS011;271;51.114;13.780;2023-04-24T11:16:13;13.87;;;1.03;;
572;SDS011;271;51.114;13.780;2023-04-24T11:19:05;13.73;;;0.90;;
572;SDS011;271;51.114;13.780;2023-04-24T11:21:54;13.77;;;1.07;;
572;SDS011;271;51.114;13.780;2023-04-24T11:24:48;14.07;;;0.83;;
572;SDS011;271;51.114;13.780;2023-04-24T11:27:38;14.13;;;1.33;;
572;SDS011;271;51.114;13.780;2023-04-24T11:30:29;14.20;;;0.97;;
572;SDS011;271;51.114;13.780;2023-04-24T11:33:19;14.90;;;1.13;;
572;SDS011;271;51.114;13.780;2023-04-24T11:36:07;13.80;;;1.00;;
572;SDS011;271;51.114;13.780;2023-04-24T11:38:55;14.20;;;1.07;;
572;SDS011;271;51.114;13.780;2023-04-24T11:41:44;13.73;;;0.97;;
572;SDS011;271;51.114;13.780;2023-04-24T11:44:33;14.20;;;0.97;;
572;SDS011;271;51.114;13.780;2023-04-24T11:47:30;13.77;;;0.83;;
572;SDS011;271;51.114;13.780;2023-04-24T11:50:21;14.70;;;0.97;;
572;SDS011;271;51.114;13.780;2023-04-24T11:53:11;13.80;;;1.00;;
572;SDS011;271;51.114;13.780;2023-04-24T11:56:02;14.40;;;1.03;;
572;SDS011;271;51.114;13.780;2023-04-24T11:58:51;14.13;;;0.90;;
572;SDS011;271;51.114;13.780;2023-04-24T12:01:43;15.13;;;1.00;;
572;SDS011;271;51.114;13.780;2023-04-24T12:04:39;14.00;;;1.10;;
572;SDS011;271;51.114;13.780;2023-04-24T12:07:27;13.83;;;0.80;;
572;SDS011;271;51.114;13.780;2023-04-24T12:10:19;13.90;;;0.90;;
572;SDS011;271;51.114;13.780;2023-04-24T12:13:09;14.30;;;1.10;;
572;SDS011;271;51.114;13.780;2023-04-24T12:15:57;14.50;;;0.97;;
572;SDS011;271;51.114;13.780;2023-04-24T12:18:45;14.50;;;1.13;;
572;SDS011;271;51.114;13.780;2023-04-24T12:21:34;14.40;;;1.10;;
572;SDS011;271;51.114;13.780;2023-04-24T12:24:21;14.13;;;0.90;;
572;SDS011;271;51.114;13.780;2023-04-24T12:27:18;14.10;;;1.03;;
572;SDS011;271;51.114;13.780;2023-04-24T12:30:12;13.93;;;1.00;;
572;SDS011;271;51.114;13.780;2023-04-24T12:33:00;14.27;;;1.30;;
572;SDS011;271;51.114;13.780;2023-04-24T12:35:51;14.70;;;1.97;;
572;SDS011;271;51.114;13.780;2023-04-24T12:38:42;14.70;;;1.03;;
572;SDS011;271;51.114;13.780;2023-04-24T12:41:32;14.00;;;1.03;;
572;SDS011;271;51.114;13.780;2023-04-24T12:44:19;14.40;;;1.40;;
572;SDS011;271;51.114;13.780;2023-04-24T12:47:07;14.07;;;1.40;;
572;SDS011;271;51.114;13.780;2023-04-24T12:49:56;14.53;;;1.10;;
572;SDS011;271;51.114;13.780;2023-04-24T12:52:44;13.77;;;0.93;;
572;SDS011;271;51.114;13.780;2023-04-24T12:55:33;14.00;;;1.00;;
572;SDS011;271;51.114;13.780;2023-04-24T12:58:21;14.33;;;1.37;;
572;SDS011;271;51.114;13.780;2023-04-24T13:01:09;13.87;;;1.20;;
572;SDS011;271;51.114;13.780;2023-04-24T13:03:57;14.37;;;1.13;;
572;SDS011;271;51.114;13.780;2023-04-24T13:06:45;13.90;;;1.20;;
572;SDS011;271;51.114;13.780;2023-04-24T13:09:34;13.77;;;1.00;;
572;SDS011;271;51.114;13.780;2023-04-24T13:12:23;14.07;;;1.00;;
572;SDS011;271;51.114;13.780;2023-04-24T13:15:12;14.40;;;1.17;;
572;SDS011;271;51.114;13.780;2023-04-24T13:18:00;16.40;;;1.63;;
572;SDS011;271;51.114;13.780;2023-04-24T13:20:47;14.30;;;0.97;;
572;SDS011;271;51.114;13.780;2023-04-24T13:23:35;14.60;;;1.00;;
572;SDS011;271;51.114;13.780;2023-04-24T13:26:23;13.73;;;1.27;;
572;SDS011;271;51.114;13.780;2023-04-24T13:29:12;14.20;;;1.20;;
572;SDS011;271;51.114;13.780;2023-04-24T13:32:00;14.70;;;1.60;;
572;SDS011;271;51.114;13.780;2023-04-24T13:34:47;16.60;;;1.50;;
572;SDS011;271;51.114;13.780;2023-04-24T13:37:35;15.70;;;1.47;;
572;SDS011;271;51.114;13.780;2023-04-24T13:40:23;13.70;;;1.03;;
572;SDS011;271;51.114;13.780;2023-04-24T13:43:10;14.80;;;1.00;;
572;SDS011;271;51.114;13.780;2023-04-24T13:45:59;13.80;;;1.20;;
572;SDS011;271;51.114;13.780;2023-04-24T13:48:48;14.30;;;1.27;;
572;SDS011;271;51.114;13.780;2023-04-24T13:51:36;14.10;;;1.23;;
572;SDS011;271;51.114;13.780;2023-04-24T13:54:23;13.77;;;1.10;;
572;SDS011;271;51.114;13.780;2023-04-24T13:57:11;13.73;;;1.00;;
572;SDS011;271;51.114;13.780;2023-04-24T14:00:00;13.77;;;1.10;;
572;SDS011;271;51.114;13.780;2023-04-24T14:02:51;13.67;;;1.00;;
572;SDS011;271;51.114;13.780;2023-04-24T14:05:38;16.47;;;1.00;;
572;SDS011;271;51.114;13.780;2023-04-24T14:08:26;15.60;;;1.30;;
572;SDS011;271;51.114;13.780;2023-04-24T14:11:14;13.67;;;1.00;;
572;SDS011;271;51.114;13.780;2023-04-24T14:14:01;13.93;;;1.27;;
572;SDS011;271;51.114;13.780;2023-04-24T14:16:49;14.13;;;1.10;;
572;SDS011;271;51.114;13.780;2023-04-24T14:19:39;24.37;;;2.00;;
572;SDS011;271;51.114;13.780;2023-04-24T14:22:26;14.50;;;1.33;;
572;SDS011;271;51.114;13.780;2023-04-24T14:25:14;13.53;;;0.90;;
572;SDS011;271;51.114;13.780;2023-04-24T14:28:02;14.00;;;1.63;;
572;SDS011;271;51.114;13.780;2023-04-24T14:30:50;20.10;;;1.60;;
572;SDS011;271;51.114;13.780;2023-04-24T14:33:37;13.53;;;1.13;;
572;SDS011;271;51.114;13.780;2023-04-24T14:36:26;14.20;;;1.43;;
572;SDS011;271;51.114;13.780;2023-04-24T14:39:15;14.60;;;1.20;;
572;SDS011;271;51.114;13.780;2023-04-24T14:42:03;13.97;;;1.40;;
572;SDS011;271;51.114;13.780;2023-04-24T14:44:50;15.80;;;1.10;;
572;SDS011;271;51.114;13.780;2023-04-24T14:47:38;15.70;;;1.00;;
572;SDS011;271;51.114;13.780;2023-04-24T14:50:26;14.10;;;1.20;;
572;SDS011;271;51.114;13.780;2023-04-24T14:53:16;14.07;;;1.57;;
572;SDS011;271;51.114;13.780;2023-04-24T14:56:04;14.03;;;1.50;;
572;SDS011;271;51.114;13.780;2023-04-24T14:58:53;13.77;;;1.20;;
572;SDS011;271;51.114;13.780;2023-04-24T15:01:40;14.00;;;1.20;;
572;SDS011;271;51.114;13.780;2023-04-24T15:04:28;14.60;;;1.13;;
572;SDS011;271;51.114;13.780;2023-04-24T15:07:17;15.23;;;1.40;;
572;SDS011;271;51.114;13.780;2023-04-24T15:10:06;14.40;;;1.10;;
572;SDS011;271;51.114;13.780;2023-04-24T15:12:55;13.70;;;1.20;;
572;SDS011;271;51.114;13.780;2023-04-24T15:15:43;15.20;;;1.70;;
572;SDS011;271;51.114;13.780;2023-04-24T15:18:32;13.83;;;1.33;;
572;SDS011;271;51.114;13.780;2023-04-24T15:21:20;14.37;;;1.63;;
572;SDS011;271;51.114;13.780;2023-04-24T15:24:08;13.63;;;1.00;;
572;SDS011;271;51.114;13.780;2023-04-24T15:26:57;14.93;;;1.40;;
572;SDS011;271;51.114;13.780;2023-04-24T15:29:47;13.83;;;1.30;;
572;SDS011;271;51.114;13.780;2023-04-24T15:32:35;13.70;;;1.00;;
572;SDS011;271;51.114;13.780;2023-04-24T15:35:23;13.57;;;1.10;;
572;SDS011;271;51.114;13.780;2023-04-24T15:38:10;13.67;;;1.10;;
572;SDS011;271;51.114;13.780;2023-04-24T15:40:58;14.23;;;1.10;;
572;SDS011;271;51.114;13.780;2023-04-24T15:43:47;14.40;;;1.20;;
572;SDS011;271;51.114;13.780;2023-04-24T15:46:35;14.00;;;1.23;;
572;SDS011;271;51.114;13.780;2023-04-24T15:49:22;14.17;;;1.10;;
572;SDS011;271;51.114;13.780;2023-04-24T15:52:10;14.00;;;1.10;;
572;SDS011;271;51.114;13.780;2023-04-24T15:54:59;14.67;;;1.20;;
572;SDS011;271;51.114;13.780;2023-04-24T15:57:47;15.13;;;1.20;;
572;SDS011;271;51.114;13.780;2023-04-24T16:00:36;13.97;;;1.23;;
572;SDS011;271;51.114;13.780;2023-04-24T16:03:24;13.70;;;1.10;;
572;SDS011;271;51.114;13.780;2023-04-24T16:06:12;13.93;;;1.13;;
572;SDS011;271;51.114;13.780;2023-04-24T16:09:00;14.70;;;1.40;;
572;SDS011;271;51.114;13.780;2023-04-24T16:11:47;14.50;;;1.23;;
572;SDS011;271;51.114;13.780;2023-04-24T16:14:35;13.90;;;1.27;;
572;SDS011;271;51.114;13.780;2023-04-24T16:17:25;14.50;;;1.20;;
572;SDS011;271;51.114;13.780;2023-04-24T16:20:13;13.90;;;1.20;;
572;SDS011;271;51.114;13.780;2023-04-24T16:23:02;14.80;;;1.23;;
572;SDS011;271;51.114;13.780;2023-04-24T16:25:49;14.20;;;1.37;;
572;SDS011;271;51.114;13.780;2023-04-24T16:28:37;13.87;;;1.10;;
572;SDS011;271;51.114;13.780;2023-04-24T16:31:25;15.70;;;1.33;;
572;SDS011;271;51.114;13.780;2023-04-24T16:34:14;15.27;;;1.10;;
572;SDS011;271;51.114;13.780;2023-04-24T16:37:02;14.07;;;1.40;;
572;SDS011;271;51.114;13.780;2023-04-24T16:39:50;14.50;;;1.30;;
572;SDS011;271;51.114;13.780;2023-04-24T16:42:39;14.53;;;1.60;;
572;SDS011;271;51.114;13.780;2023-04-24T16:45:27;13.97;;;1.30;;
572;SDS011;271;51.114;13.780;2023-04-24T16:48:15;14.80;;;1.30;;
572;SDS011;271;51.114;13.780;2023-04-24T16:51:10;14.73;;;1.60;;
572;SDS011;271;51.114;13.780;2023-04-24T16:54:06;16.00;;;1.53;;
572;SDS011;271;51.114;13.780;2023-04-24T16:56:53;15.00;;;1.50;;
572;SDS011;271;51.114;13.780;2023-04-24T16:59:43;14.23;;;1.40;;
572;SDS011;271;51.114;13.780;2023-04-24T17:02:31;14.90;;;1.37;;
572;SDS011;271;51.114;13.780;2023-04-24T17:05:18;14.40;;;1.50;;
572;SDS011;271;51.114;13.780;2023-04-24T17:08:09;14.97;;;1.80;;
572;SDS011;271;51.114;13.780;2023-04-24T17:10:57;15.13;;;1.87;;
572;SDS011;271;51.114;13.780;2023-04-24T17:13:45;14.70;;;2.23;;
572;SDS011;271;51.114;13.780;2023-04-24T17:16:32;14.60;;;1.60;;
572;SDS011;271;51.114;13.780;2023-04-24T17:19:20;15.00;;;1.50;;
572;SDS011;271;51.114;13.780;2023-04-24T17:22:08;15.77;;;1.50;;
572;SDS011;271;51.114;13.780;2023-04-24T17:24:57;14.30;;;1.23;;
572;SDS011;271;51.114;13.780;2023-04-24T17:27:45;15.30;;;1.40;;
572;SDS011;271;51.114;13.780;2023-04-24T17:30:32;13.90;;;1.03;;